sensor_id;sensor_type;location;lat;lon;timestamp;P1;durP1;ratioP1;P2;durP2;ratioP2
15474;SDS011;7839;50.462;9.678;2023-06-04T00:05:42;1.00;;;0.38;;
15474;SDS011;7839;50.462;9.678;2023-06-04T00:12:22;0.65;;;0.50;;
15474;SDS011;7839;50.462;9.678;2023-06-04T00:19:02;1.05;;;0.70;;
15474;SDS011;7839;50.462;9.678;2023-06-04T00:25:43;0.30;;;0.30;;
15474;SDS011;7839;50.462;9.678;2023-06-04T00:32:23;0.73;;;0.50;;
15474;SDS011;7839;50.462;9.678;2023-06-04T00:39:03;0.45;;;0.45;;
15474;SDS011;7839;50.462;9.678;2023-06-04T00:45:43;0.40;;;0.40;;
15474;SDS011;7839;50.462;9.678;2023-06-04T00:52:24;0.20;;;0.20;;
15474;SDS011;7839;50.462;9.678;2023-06-04T00:59:05;0.28;;;0.28;;
15474;SDS011;7839;50.462;9.678;2023-06-04T01:06:07;0.85;;;0.60;;
15474;SDS011;7839;50.462;9.678;2023-06-04T01:12:50;0.50;;;0.50;;
15474;SDS011;7839;50.462;9.678;2023-06-04T01:26:31;0.30;;;0.30;;
15474;SDS011;7839;50.462;9.678;2023-06-04T01:33:12;0.37;;;0.37;;
15474;SDS011;7839;50.462;9.678;2023-06-04T01:39:53;0.68;;;0.30;;
15474;SDS011;7839;50.462;9.678;2023-06-04T01:46:33;0.68;;;0.45;;
15474;SDS011;7839;50.462;9.678;2023-06-04T01:53:13;0.30;;;0.27;;
15474;SDS011;7839;50.462;9.678;2023-06-04T01:59:53;0.20;;;0.20;;
15474;SDS011;7839;50.462;9.678;2023-06-04T02:06:33;0.40;;;0.40;;
15474;SDS011;7839;50.462;9.678;2023-06-04T02:13:14;0.32;;;0.32;;
15474;SDS011;7839;50.462;9.678;2023-06-04T02:19:54;0.38;;;0.38;;
15474;SDS011;7839;50.462;9.678;2023-06-04T02:26:36;0.40;;;0.40;;
15474;SDS011;7839;50.462;9.678;2023-06-04T02:33:17;0.30;;;0.30;;
15474;SDS011;7839;50.462;9.678;2023-06-04T02:39:57;0.43;;;0.40;;
15474;SDS011;7839;50.462;9.678;2023-06-04T02:46:37;0.65;;;0.40;;
15474;SDS011;7839;50.462;9.678;2023-06-04T02:53:17;0.30;;;0.30;;
15474;SDS011;7839;50.462;9.678;2023-06-04T02:59:58;0.47;;;0.47;;
15474;SDS011;7839;50.462;9.678;2023-06-04T03:06:39;0.30;;;0.30;;
15474;SDS011;7839;50.462;9.678;2023-06-04T03:13:19;0.30;;;0.30;;
15474;SDS011;7839;50.462;9.678;2023-06-04T03:19:59;0.40;;;0.30;;
15474;SDS011;7839;50.462;9.678;2023-06-04T03:26:39;0.30;;;0.30;;
15474;SDS011;7839;50.462;9.678;2023-06-04T03:33:20;0.30;;;0.30;;
15474;SDS011;7839;50.462;9.678;2023-06-04T03:40:00;0.30;;;0.30;;
15474;SDS011;7839;50.462;9.678;2023-06-04T03:46:46;0.73;;;0.43;;
15474;SDS011;7839;50.462;9.678;2023-06-04T03:53:26;0.40;;;0.40;;
15474;SDS011;7839;50.462;9.678;2023-06-04T04:00:07;0.30;;;0.30;;
15474;SDS011;7839;50.462;9.678;2023-06-04T04:06:48;0.98;;;0.38;;
15474;SDS011;7839;50.462;9.678;2023-06-04T04:13:28;0.20;;;0.20;;
15474;SDS011;7839;50.462;9.678;2023-06-04T04:20:09;0.30;;;0.30;;
15474;SDS011;7839;50.462;9.678;2023-06-04T04:26:49;0.35;;;0.30;;
15474;SDS011;7839;50.462;9.678;2023-06-04T04:33:32;0.50;;;0.50;;
15474;SDS011;7839;50.462;9.678;2023-06-04T04:40:16;0.10;;;0.10;;
15474;SDS011;7839;50.462;9.678;2023-06-04T04:46:56;0.40;;;0.40;;
15474;SDS011;7839;50.462;9.678;2023-06-04T04:53:37;0.30;;;0.30;;
15474;SDS011;7839;50.462;9.678;2023-06-04T05:00:17;0.67;;;0.53;;
15474;SDS011;7839;50.462;9.678;2023-06-04T05:06:57;0.40;;;0.30;;
15474;SDS011;7839;50.462;9.678;2023-06-04T05:13:37;0.20;;;0.20;;
15474;SDS011;7839;50.462;9.678;2023-06-04T05:20:18;0.33;;;0.27;;
15474;SDS011;7839;50.462;9.678;2023-06-04T05:26:58;3.15;;;1.15;;
15474;SDS011;7839;50.462;9.678;2023-06-04T05:33:39;2.70;;;1.70;;
15474;SDS011;7839;50.462;9.678;2023-06-04T05:40:20;0.40;;;0.37;;
15474;SDS011;7839;50.462;9.678;2023-06-04T05:47:01;1.50;;;0.77;;
15474;SDS011;7839;50.462;9.678;2023-06-04T05:53:41;0.50;;;0.50;;
15474;SDS011;7839;50.462;9.678;2023-06-04T06:00:22;0.60;;;0.60;;
15474;SDS011;7839;50.462;9.678;2023-06-04T06:07:02;0.40;;;0.40;;
15474;SDS011;7839;50.462;9.678;2023-06-04T06:13:43;2.43;;;1.80;;
15474;SDS011;7839;50.462;9.678;2023-06-04T06:20:23;3.53;;;1.80;;
15474;SDS011;7839;50.462;9.678;2023-06-04T06:27:03;6.17;;;1.80;;
15474;SDS011;7839;50.462;9.678;2023-06-04T06:33:44;2.73;;;1.37;;
15474;SDS011;7839;50.462;9.678;2023-06-04T06:40:25;2.30;;;1.70;;
15474;SDS011;7839;50.462;9.678;2023-06-04T06:47:05;1.57;;;1.47;;
15474;SDS011;7839;50.462;9.678;2023-06-04T06:53:46;0.80;;;0.80;;
15474;SDS011;7839;50.462;9.678;2023-06-04T07:00:26;0.50;;;0.50;;
15474;SDS011;7839;50.462;9.678;2023-06-04T07:07:08;2.80;;;1.70;;
15474;SDS011;7839;50.462;9.678;2023-06-04T07:13:48;0.57;;;0.57;;
15474;SDS011;7839;50.462;9.678;2023-06-04T07:20:28;4.87;;;2.00;;
15474;SDS011;7839;50.462;9.678;2023-06-04T07:27:12;3.23;;;2.00;;
15474;SDS011;7839;50.462;9.678;2023-06-04T07:33:52;6.47;;;1.70;;
15474;SDS011;7839;50.462;9.678;2023-06-04T07:40:32;4.13;;;1.40;;
15474;SDS011;7839;50.462;9.678;2023-06-04T07:47:12;2.47;;;1.57;;
15474;SDS011;7839;50.462;9.678;2023-06-04T07:53:53;2.90;;;1.80;;
15474;SDS011;7839;50.462;9.678;2023-06-04T08:00:33;2.30;;;1.50;;
15474;SDS011;7839;50.462;9.678;2023-06-04T08:07:13;5.60;;;1.63;;
15474;SDS011;7839;50.462;9.678;2023-06-04T08:13:53;2.27;;;2.07;;
15474;SDS011;7839;50.462;9.678;2023-06-04T08:20:35;2.63;;;1.37;;
15474;SDS011;7839;50.462;9.678;2023-06-04T08:27:16;3.37;;;1.37;;
15474;SDS011;7839;50.462;9.678;2023-06-04T08:33:57;3.43;;;1.60;;
15474;SDS011;7839;50.462;9.678;2023-06-04T08:40:38;2.40;;;1.00;;
15474;SDS011;7839;50.462;9.678;2023-06-04T08:47:19;1.33;;;1.00;;
15474;SDS011;7839;50.462;9.678;2023-06-04T08:53:59;1.30;;;1.00;;
15474;SDS011;7839;50.462;9.678;2023-06-04T09:00:40;3.83;;;1.40;;
15474;SDS011;7839;50.462;9.678;2023-06-04T09:07:21;2.83;;;1.30;;
15474;SDS011;7839;50.462;9.678;2023-06-04T09:14:01;1.53;;;1.43;;
15474;SDS011;7839;50.462;9.678;2023-06-04T09:20:44;3.97;;;1.50;;
15474;SDS011;7839;50.462;9.678;2023-06-04T09:27:24;2.00;;;1.70;;
15474;SDS011;7839;50.462;9.678;2023-06-04T09:34:06;3.70;;;1.30;;
15474;SDS011;7839;50.462;9.678;2023-06-04T09:40:46;3.03;;;1.43;;
15474;SDS011;7839;50.462;9.678;2023-06-04T09:47:37;1.80;;;1.50;;
15474;SDS011;7839;50.462;9.678;2023-06-04T09:54:18;1.83;;;1.50;;
15474;SDS011;7839;50.462;9.678;2023-06-04T10:00:59;1.20;;;1.20;;
15474;SDS011;7839;50.462;9.678;2023-06-04T10:07:44;4.17;;;1.70;;
15474;SDS011;7839;50.462;9.678;2023-06-04T10:14:30;1.60;;;1.50;;
15474;SDS011;7839;50.462;9.678;2023-06-04T10:21:13;5.63;;;1.60;;
15474;SDS011;7839;50.462;9.678;2023-06-04T10:27:53;1.67;;;1.57;;
15474;SDS011;7839;50.462;9.678;2023-06-04T10:34:33;5.43;;;1.70;;
15474;SDS011;7839;50.462;9.678;2023-06-04T10:41:14;2.73;;;2.13;;
15474;SDS011;7839;50.462;9.678;2023-06-04T10:48:01;3.70;;;1.93;;
15474;SDS011;7839;50.462;9.678;2023-06-04T10:54:42;2.40;;;2.20;;
15474;SDS011;7839;50.462;9.678;2023-06-04T11:01:26;1.75;;;1.60;;
15474;SDS011;7839;50.462;9.678;2023-06-04T11:08:06;2.77;;;2.23;;
15474;SDS011;7839;50.462;9.678;2023-06-04T11:14:54;4.85;;;2.40;;
15474;SDS011;7839;50.462;9.678;2023-06-04T11:21:34;2.63;;;2.43;;
15474;SDS011;7839;50.462;9.678;2023-06-04T11:28:16;2.83;;;2.53;;
15474;SDS011;7839;50.462;9.678;2023-06-04T11:35:04;2.47;;;2.27;;
15474;SDS011;7839;50.462;9.678;2023-06-04T11:41:46;2.60;;;2.40;;
15474;SDS011;7839;50.462;9.678;2023-06-04T11:48:26;2.23;;;2.00;;
15474;SDS011;7839;50.462;9.678;2023-06-04T11:55:08;2.97;;;2.73;;
15474;SDS011;7839;50.462;9.678;2023-06-04T12:01:49;2.97;;;2.77;;
15474;SDS011;7839;50.462;9.678;2023-06-04T12:08:29;3.50;;;3.20;;
15474;SDS011;7839;50.462;9.678;2023-06-04T12:15:11;4.43;;;3.08;;
15474;SDS011;7839;50.462;9.678;2023-06-04T12:21:59;3.67;;;3.30;;
15474;SDS011;7839;50.462;9.678;2023-06-04T12:28:40;3.15;;;2.80;;
15474;SDS011;7839;50.462;9.678;2023-06-04T12:35:20;3.13;;;2.83;;
15474;SDS011;7839;50.462;9.678;2023-06-04T12:42:01;3.22;;;3.03;;
15474;SDS011;7839;50.462;9.678;2023-06-04T12:48:41;3.92;;;2.90;;
15474;SDS011;7839;50.462;9.678;2023-06-04T12:55:21;4.68;;;2.78;;
15474;SDS011;7839;50.462;9.678;2023-06-04T13:02:01;3.67;;;3.00;;
15474;SDS011;7839;50.462;9.678;2023-06-04T13:08:41;4.28;;;2.53;;
15474;SDS011;7839;50.462;9.678;2023-06-04T13:15:22;2.72;;;2.50;;
15474;SDS011;7839;50.462;9.678;2023-06-04T13:22:03;3.75;;;2.55;;
15474;SDS011;7839;50.462;9.678;2023-06-04T13:28:43;2.40;;;2.20;;
15474;SDS011;7839;50.462;9.678;2023-06-04T13:35:23;2.60;;;2.40;;
15474;SDS011;7839;50.462;9.678;2023-06-04T13:42:04;3.30;;;2.37;;
15474;SDS011;7839;50.462;9.678;2023-06-04T13:48:45;5.47;;;2.00;;
15474;SDS011;7839;50.462;9.678;2023-06-04T13:55:25;2.55;;;2.17;;
15474;SDS011;7839;50.462;9.678;2023-06-04T14:02:06;2.05;;;1.95;;
15474;SDS011;7839;50.462;9.678;2023-06-04T14:08:46;2.95;;;1.70;;
15474;SDS011;7839;50.462;9.678;2023-06-04T14:15:26;3.47;;;1.80;;
15474;SDS011;7839;50.462;9.678;2023-06-04T14:22:07;3.03;;;1.90;;
15474;SDS011;7839;50.462;9.678;2023-06-04T14:28:47;2.00;;;1.80;;
15474;SDS011;7839;50.462;9.678;2023-06-04T14:35:27;3.37;;;1.70;;
15474;SDS011;7839;50.462;9.678;2023-06-04T14:42:07;1.97;;;1.87;;
15474;SDS011;7839;50.462;9.678;2023-06-04T14:48:47;3.53;;;1.70;;
15474;SDS011;7839;50.462;9.678;2023-06-04T14:55:29;2.70;;;1.80;;
15474;SDS011;7839;50.462;9.678;2023-06-04T15:02:10;2.77;;;1.30;;
15474;SDS011;7839;50.462;9.678;2023-06-04T15:08:51;2.08;;;1.85;;
15474;SDS011;7839;50.462;9.678;2023-06-04T15:15:32;1.58;;;1.48;;
15474;SDS011;7839;50.462;9.678;2023-06-04T15:22:12;2.47;;;1.52;;
15474;SDS011;7839;50.462;9.678;2023-06-04T15:28:53;1.75;;;1.65;;
15474;SDS011;7839;50.462;9.678;2023-06-04T15:35:34;1.73;;;1.60;;
15474;SDS011;7839;50.462;9.678;2023-06-04T15:42:14;1.87;;;1.60;;
15474;SDS011;7839;50.462;9.678;2023-06-04T15:48:54;2.30;;;1.47;;
15474;SDS011;7839;50.462;9.678;2023-06-04T15:55:34;3.33;;;1.43;;
15474;SDS011;7839;50.462;9.678;2023-06-04T16:02:15;1.87;;;1.40;;
15474;SDS011;7839;50.462;9.678;2023-06-04T16:08:55;1.63;;;1.50;;
15474;SDS011;7839;50.462;9.678;2023-06-04T16:15:35;1.87;;;1.20;;
15474;SDS011;7839;50.462;9.678;2023-06-04T16:22:16;2.20;;;1.30;;
15474;SDS011;7839;50.462;9.678;2023-06-04T16:28:57;1.90;;;1.70;;
15474;SDS011;7839;50.462;9.678;2023-06-04T16:35:37;3.17;;;1.17;;
15474;SDS011;7839;50.462;9.678;2023-06-04T16:42:17;3.27;;;1.00;;
15474;SDS011;7839;50.462;9.678;2023-06-04T16:48:57;1.13;;;1.03;;
15474;SDS011;7839;50.462;9.678;2023-06-04T16:55:37;1.67;;;1.20;;
15474;SDS011;7839;50.462;9.678;2023-06-04T17:02:18;2.72;;;1.40;;
15474;SDS011;7839;50.462;9.678;2023-06-04T17:08:58;2.40;;;1.50;;
15474;SDS011;7839;50.462;9.678;2023-06-04T17:15:38;1.47;;;1.30;;
15474;SDS011;7839;50.462;9.678;2023-06-04T17:22:18;2.37;;;1.37;;
15474;SDS011;7839;50.462;9.678;2023-06-04T17:28:59;1.40;;;1.30;;
15474;SDS011;7839;50.462;9.678;2023-06-04T17:35:39;0.90;;;0.90;;
15474;SDS011;7839;50.462;9.678;2023-06-04T17:42:19;1.23;;;1.00;;
15474;SDS011;7839;50.462;9.678;2023-06-04T17:48:59;3.27;;;1.23;;
15474;SDS011;7839;50.462;9.678;2023-06-04T17:55:43;2.53;;;1.10;;
15474;SDS011;7839;50.462;9.678;2023-06-04T18:02:23;1.30;;;1.20;;
15474;SDS011;7839;50.462;9.678;2023-06-04T18:09:03;2.40;;;1.20;;
15474;SDS011;7839;50.462;9.678;2023-06-04T18:15:45;1.37;;;1.13;;
15474;SDS011;7839;50.462;9.678;2023-06-04T18:22:26;2.33;;;1.20;;
15474;SDS011;7839;50.462;9.678;2023-06-04T18:29:06;1.53;;;1.43;;
15474;SDS011;7839;50.462;9.678;2023-06-04T18:35:46;1.40;;;1.30;;
15474;SDS011;7839;50.462;9.678;2023-06-04T18:42:27;1.30;;;1.20;;
15474;SDS011;7839;50.462;9.678;2023-06-04T18:49:07;1.30;;;1.20;;
15474;SDS011;7839;50.462;9.678;2023-06-04T18:55:47;4.40;;;1.30;;
15474;SDS011;7839;50.462;9.678;2023-06-04T19:02:27;3.03;;;1.00;;
15474;SDS011;7839;50.462;9.678;2023-06-04T19:09:08;4.33;;;1.03;;
15474;SDS011;7839;50.462;9.678;2023-06-04T19:15:48;1.30;;;1.20;;
15474;SDS011;7839;50.462;9.678;2023-06-04T19:22:32;1.10;;;1.00;;
15474;SDS011;7839;50.462;9.678;2023-06-04T19:29:12;2.13;;;1.20;;
15474;SDS011;7839;50.462;9.678;2023-06-04T19:35:52;1.20;;;1.10;;
15474;SDS011;7839;50.462;9.678;2023-06-04T19:42:32;1.50;;;1.37;;
15474;SDS011;7839;50.462;9.678;2023-06-04T19:49:13;1.30;;;1.20;;
15474;SDS011;7839;50.462;9.678;2023-06-04T19:55:53;1.20;;;1.15;;
15474;SDS011;7839;50.462;9.678;2023-06-04T20:02:34;1.15;;;1.10;;
15474;SDS011;7839;50.462;9.678;2023-06-04T20:09:15;0.98;;;0.90;;
15474;SDS011;7839;50.462;9.678;2023-06-04T20:15:56;1.30;;;1.20;;
15474;SDS011;7839;50.462;9.678;2023-06-04T20:22:36;1.27;;;1.17;;
15474;SDS011;7839;50.462;9.678;2023-06-04T20:29:16;1.30;;;1.20;;
15474;SDS011;7839;50.462;9.678;2023-06-04T20:35:56;0.93;;;0.93;;
15474;SDS011;7839;50.462;9.678;2023-06-04T20:42:37;0.90;;;0.90;;
15474;SDS011;7839;50.462;9.678;2023-06-04T20:49:17;0.98;;;0.98;;
15474;SDS011;7839;50.462;9.678;2023-06-04T20:55:57;0.80;;;0.80;;
15474;SDS011;7839;50.462;9.678;2023-06-04T21:02:37;0.82;;;0.82;;
15474;SDS011;7839;50.462;9.678;2023-06-04T21:09:18;0.80;;;0.80;;
15474;SDS011;7839;50.462;9.678;2023-06-04T21:15:58;0.70;;;0.70;;
15474;SDS011;7839;50.462;9.678;2023-06-04T21:22:38;0.77;;;0.77;;
15474;SDS011;7839;50.462;9.678;2023-06-04T21:29:18;0.82;;;0.82;;
15474;SDS011;7839;50.462;9.678;2023-06-04T21:35:59;0.93;;;0.82;;
15474;SDS011;7839;50.462;9.678;2023-06-04T21:42:39;0.70;;;0.60;;
15474;SDS011;7839;50.462;9.678;2023-06-04T21:49:19;0.70;;;0.70;;
15474;SDS011;7839;50.462;9.678;2023-06-04T21:55:59;0.60;;;0.60;;
15474;SDS011;7839;50.462;9.678;2023-06-04T22:02:40;0.73;;;0.73;;
15474;SDS011;7839;50.462;9.678;2023-06-04T22:09:20;0.60;;;0.60;;
15474;SDS011;7839;50.462;9.678;2023-06-04T22:16:00;0.43;;;0.43;;
15474;SDS011;7839;50.462;9.678;2023-06-04T22:22:41;0.60;;;0.60;;
15474;SDS011;7839;50.462;9.678;2023-06-04T22:29:21;0.60;;;0.60;;
15474;SDS011;7839;50.462;9.678;2023-06-04T22:36:01;0.40;;;0.40;;
15474;SDS011;7839;50.462;9.678;2023-06-04T22:42:41;0.60;;;0.60;;
15474;SDS011;7839;50.462;9.678;2023-06-04T22:49:22;0.60;;;0.60;;
15474;SDS011;7839;50.462;9.678;2023-06-04T22:56:02;0.70;;;0.50;;
15474;SDS011;7839;50.462;9.678;2023-06-04T23:02:46;0.50;;;0.50;;
15474;SDS011;7839;50.462;9.678;2023-06-04T23:09:26;0.57;;;0.57;;
15474;SDS011;7839;50.462;9.678;2023-06-04T23:16:06;0.40;;;0.40;;
15474;SDS011;7839;50.462;9.678;2023-06-04T23:22:47;0.50;;;0.50;;
15474;SDS011;7839;50.462;9.678;2023-06-04T23:29:27;0.43;;;0.43;;
15474;SDS011;7839;50.462;9.678;2023-06-04T23:36:07;0.60;;;0.60;;
15474;SDS011;7839;50.462;9.678;2023-06-04T23:42:47;0.70;;;0.70;;
15474;SDS011;7839;50.462;9.678;2023-06-04T23:49:27;0.60;;;0.60;;
15474;SDS011;7839;50.462;9.678;2023-06-04T23:56:07;0.55;;;0.55;;
